Latest Weather Observations for Mount Gellibrand

IDV60801

Issued at 7:12 pm EST Wednesday 19 September 2018 (issued every 10 minutes, with the page automatically refreshed every 10 minutes)

About weather observations | Map of weather stations | Latest weather observations for VIC | Other Formats
Station Details ID: 090035 Name: MOUNT GELLIBRAND Lat: -38.23 Lon: 143.79 Height: 261.0 m
Data from the previous 72 hours. | See also: Recent months at Mount Gellibrand
Date/Time
EST
Temp
°C
App
Temp
°C
Dew
Point
°C
Rel
Hum
%
Delta-T
°C
Wind Press
QNH
hPa
Press
MSL
hPa
Rain since
9am
mm
Dir  Spd
km/h
Gust
km/h
Spd
kts
Gust
kts
19/07:00pm 7.6 3.4 4.0 78 1.6 SW 15 17 8 9 1016.1 1016.2 2.0
19/06:30pm 7.5 3.4 4.1 79 1.5 WSW 15 17 8 9 1015.6 1015.8 2.0
19/06:00pm 8.4 3.6 4.4 76 1.8 WSW 19 22 10 12 1015.3 1015.5 2.0
19/05:30pm 9.8 5.0 4.6 70 2.4 WSW 19 22 10 12 1015.0 1015.2 2.0
19/05:00pm 9.8 4.8 4.6 70 2.4 WSW 20 28 11 15 1014.7 1014.9 1.8
19/04:30pm 10.7 5.5 5.3 69 2.5 WSW 22 28 12 15 1014.5 1014.7 1.8
19/04:00pm 9.9 4.1 4.5 69 2.4 WSW 24 37 13 20 1014.3 1014.5 1.8
19/03:30pm 8.9 1.4 4.5 74 2.0 W 33 41 18 22 1014.1 1014.3 1.8
19/03:00pm 10.8 5.2 5.6 70 2.4 WSW 24 37 13 20 1013.8 1014.0 1.8
19/02:30pm 8.7 3.4 4.9 77 1.7 SW 22 32 12 17 1013.9 1014.1 1.8
19/02:00pm 9.9 4.2 4.7 70 2.4 WSW 24 35 13 19 1013.7 1013.9 1.8
19/01:30pm 11.0 5.7 6.7 75 2.1 W 24 37 13 20 1013.6 1013.8 1.8
19/01:00pm 9.5 5.5 8.3 92 0.6 WSW 19 26 10 14 1013.7 1013.9 1.8
19/12:30pm 7.7 3.3 7.4 98 0.1 WSW 20 32 11 17 1013.8 1014.0 1.6
19/12:00pm 7.6 2.5 5.9 89 0.8 SW 22 30 12 16 1013.6 1013.8 0.0
19/11:30am 9.1 2.8 5.8 80 1.5 WSW 28 37 15 20 1013.4 1013.5 0.0
19/11:00am 8.9 2.7 6.2 83 1.3 W 28 43 15 23 1013.1 1013.2 0.0
19/10:30am 8.3 2.1 6.1 86 1.0 W 28 39 15 21 1013.0 1013.1 0.0
19/10:00am 8.2 2.0 6.2 87 0.9 W 28 35 15 19 1012.9 1013.0 0.0
19/09:30am 7.3 1.4 7.3 100 0.0 W 28 37 15 20 1012.7 1012.8 0.0
19/09:00am 6.5 0.0 6.5 100 0.0 W 30 37 16 20 1012.5 1012.6 0.2
19/08:30am 6.2 0.4 6.2 100 0.0 W 26 33 14 18 1012.1 1012.2 0.2
19/08:00am 5.2 -1.2 5.2 100 0.0 WNW 28 32 15 17 1011.5 1011.7 0.2
19/07:30am 4.2 -2.8 4.2 100 0.0 WNW 30 41 16 22 1011.1 1011.3 0.2
19/07:00am 3.8 -2.5 3.8 100 0.0 WNW 26 32 14 17 1010.8 1011.0 0.2
19/06:30am 3.9 -2.0 3.9 100 0.0 WNW 24 32 13 17 1010.6 1010.8 0.2
19/06:00am 4.1 -1.8 4.1 100 0.0 WNW 24 28 13 15 1010.2 1010.3 0.2
19/05:30am 3.7 -1.5 3.7 100 0.0 W 20 26 11 14 1009.6 1009.7 0.2
19/05:00am 4.2 -2.4 4.2 100 0.0 W 28 33 15 18 1009.2 1009.3 0.2
19/04:30am 4.0 -3.0 4.0 100 0.0 W 30 39 16 21 1008.9 1009.0 0.2
19/04:00am 4.3 -3.2 4.3 100 0.0 WNW 33 39 18 21 1008.3 1008.4 0.2
19/03:30am 5.0 -1.8 5.0 100 0.0 WNW 30 39 16 21 1008.3 1008.4 0.2
19/03:00am 4.9 -2.3 4.9 100 0.0 WNW 32 37 17 20 1008.3 1008.4 0.2
19/02:30am 5.1 -1.3 5.1 100 0.0 WNW 28 35 15 19 1008.5 1008.6 0.2
19/02:00am 5.3 -1.8 5.3 100 0.0 WNW 32 37 17 20 1008.7 1008.8 0.2
19/01:30am 5.5 -0.8 5.5 100 0.0 WNW 28 35 15 19 1009.0 1009.1 0.2
19/01:00am 5.6 -0.3 5.6 100 0.0 WNW 26 37 14 20 1009.2 1009.3 0.2
19/12:30am 6.0 -0.6 6.0 100 0.0 NW 30 41 16 22 1009.2 1009.3 0.2
19/12:00am 6.2 0.0 6.2 100 0.0 NW 28 33 15 18 1009.2 1009.3 0.2
 
Date/Time
EST
Temp
°C
App
Temp
°C
Dew
Point
°C
Rel
Hum
%
Delta-T
°C
Wind Press
QNH
hPa
Press
MSL
hPa
Rain since
9am
mm
Dir  Spd
km/h
Gust
km/h
Spd
kts
Gust
kts
18/11:30pm 6.7 0.2 6.7 100 0.0 NW 30 44 16 24 1009.4 1009.5 0.2
18/11:00pm 7.0 0.2 7.0 100 0.0 NW 32 43 17 23 1009.3 1009.4 0.2
18/10:30pm 6.6 0.1 6.3 98 0.1 NW 30 39 16 21 1009.3 1009.4 0.2
18/10:00pm 7.2 1.2 6.9 98 0.1 NW 28 35 15 19 1009.2 1009.3 0.2
18/09:30pm 7.4 1.0 7.0 97 0.2 NW 30 35 16 19 1009.1 1009.2 0.2
18/09:00pm 7.4 2.2 7.3 99 0.0 WNW 24 32 13 17 1009.2 1009.3 0.2
18/08:30pm 7.2 1.5 6.8 97 0.2 WNW 26 28 14 15 1009.2 1009.3 0.2
18/08:00pm 7.6 2.0 7.0 96 0.3 WNW 26 32 14 17 1009.2 1009.3 0.0
18/07:30pm 7.7 1.3 7.0 95 0.3 WNW 30 37 16 20 1008.8 1008.9 0.0
18/07:00pm 7.5 -0.3 6.8 95 0.3 W 37 50 20 27 1008.6 1008.7 0.0
18/06:30pm 8.2 1.6 7.6 96 0.3 WSW 32 43 17 23 1008.5 1008.6 0.0
18/06:00pm 9.0 2.8 7.8 92 0.6 W 30 44 16 24 1008.3 1008.4 0.0
18/05:30pm 10.2 4.4 8.0 86 1.1 WSW 28 37 15 20 1008.1 1008.2 0.0
18/05:00pm 11.1 4.4 7.2 77 1.9 WSW 32 37 17 20 1007.2 1007.4 0.0
18/04:30pm 11.5 4.6 7.2 75 2.1 W 33 44 18 24 1006.7 1006.8 0.0
18/04:00pm 12.1 7.3 7.4 73 2.3 WNW 22 32 12 17 1006.9 1007.0 0.0
18/03:30pm 13.2 4.0 5.6 60 3.6 NW 43 56 23 30 1006.4 1006.5 0.0
18/03:00pm 14.0 6.7 5.6 57 4.0 NW 33 50 18 27 1006.3 1006.4 0.0
18/02:30pm 13.8 6.7 6.2 60 3.7 NW 33 43 18 23 1006.8 1006.9 0.0
18/02:00pm 13.5 5.9 5.7 59 3.7 NW 35 46 19 25 1007.2 1007.4 0.0
18/01:30pm 13.7 7.1 6.1 60 3.7 NW 30 43 16 23 1007.5 1007.7 0.0
18/01:00pm 13.4 5.4 5.8 60 3.6 WNW 37 44 20 24 1008.1 1008.2 0.0
18/12:30pm 13.3 3.6 3.7 52 4.4 NW 44 57 24 31 1007.6 1007.8 0.0
18/12:00pm 13.4 3.8 3.5 51 4.5 NW 43 50 23 27 1007.4 1007.6 0.0
18/11:30am 13.9 3.1 1.9 44 5.3 NW 48 63 26 34 1007.3 1007.5 0.0
18/11:19am 15.1 3.7 3.0 44 5.5 NW 52 72 28 39 1006.9 1007.0 0.0
18/11:00am 15.3 4.0 1.4 39 6.2 NW 50 67 27 36 1006.7 1006.8 0.0
18/10:30am 14.4 3.0 0.3 38 6.0 NW 50 63 27 34 1007.1 1007.3 0.0
18/10:00am 13.9 4.0 1.9 44 5.3 NW 43 57 23 31 1007.4 1007.6 0.0
18/09:30am 12.9 1.9 1.0 44 5.1 NNW 48 59 26 32 1007.3 1007.5 0.0
18/09:00am 12.5 0.5 -0.7 40 5.5 NNW 52 63 28 34 1006.9 1007.0 0.0
18/08:30am 12.0 0.1 -0.5 42 5.1 NNW 52 63 28 34 1006.9 1007.0 0.0
18/08:00am 10.9 -0.3 -0.5 45 4.7 NNW 48 57 26 31 1007.4 1007.6 0.0
18/07:30am 9.5 -2.2 -1.2 47 4.2 N 50 57 27 31 1006.8 1006.9 0.0
18/07:00am 9.3 -2.8 -2.0 45 4.4 N 52 61 28 33 1006.8 1006.9 0.0
18/06:30am 9.3 -2.9 -2.3 44 4.5 NNW 52 61 28 33 1007.1 1007.3 0.0
18/06:00am 9.1 -2.3 -2.2 45 4.4 NNW 48 57 26 31 1007.3 1007.5 0.0
18/05:30am 9.6 -0.8 -2.0 44 4.5 NNW 43 50 23 27 1007.4 1007.6 0.0
18/05:00am 9.8 -3.1 -2.2 43 4.7 N 56 63 30 34 1006.6 1006.7 0.0
18/04:30am 9.6 -2.9 -1.7 45 4.4 N 54 61 29 33 1007.1 1007.3 0.0
18/04:00am 9.7 -2.3 -1.3 46 4.4 N 52 61 28 33 1007.6 1007.8 0.0
18/03:30am 9.8 -2.6 -1.0 47 4.3 N 54 63 29 34 1008.0 1008.1 0.0
18/03:00am 10.1 -1.5 -1.0 46 4.4 N 50 61 27 33 1008.3 1008.4 0.0
18/02:30am 9.6 -0.7 0.0 51 3.9 N 44 50 24 27 1008.9 1009.0 0.0
18/02:00am 9.1 -0.6 0.3 54 3.6 N 41 46 22 25 1009.6 1009.7 0.0
18/01:30am 9.3 0.0 0.5 54 3.6 N 39 46 21 25 1010.1 1010.2 0.0
18/01:00am 9.0 -0.7 0.5 55 3.5 N 41 44 22 24 1010.5 1010.7 0.0
18/12:30am 9.0 -1.0 1.0 57 3.3 N 43 48 23 26 1010.8 1011.0 0.0
18/12:00am 9.6 -0.4 0.8 54 3.7 N 43 50 23 27 1011.1 1011.3 0.0
 
Date/Time
EST
Temp
°C
App
Temp
°C
Dew
Point
°C
Rel
Hum
%
Delta-T
°C
Wind Press
QNH
hPa
Press
MSL
hPa
Rain since
9am
mm
Dir  Spd
km/h
Gust
km/h
Spd
kts
Gust
kts
17/11:30pm 10.3 1.0 0.3 50 4.1 NNW 39 50 21 27 1011.7 1011.9 0.0
17/11:26pm 10.3 1.0 0.3 50 4.1 NNW 39 48 21 26 1011.9 1012.0 0.0
17/11:00pm 9.0 1.9 1.2 58 3.2 N 28 30 15 16 1012.5 1012.6 0.0
17/10:30pm 9.9 1.4 0.8 53 3.8 N 35 39 19 21 1012.3 1012.4 0.0
17/10:00pm 10.0 1.2 1.1 54 3.7 N 37 41 20 22 1012.5 1012.6 0.0
17/09:30pm 10.4 1.9 1.2 53 3.9 N 35 41 19 22 1012.8 1012.9 0.0
17/09:00pm 10.4 1.6 1.5 54 3.8 N 37 43 20 23 1013.1 1013.2 0.0
17/08:30pm 10.9 2.5 1.4 52 4.0 N 35 41 19 22 1013.4 1013.5 0.0
17/08:00pm 11.1 2.7 1.6 52 4.1 N 35 39 19 21 1013.4 1013.5 0.0
17/07:30pm 11.3 3.9 2.1 53 4.0 N 30 35 16 19 1013.7 1013.9 0.0
17/07:00pm 11.9 4.6 2.6 53 4.1 N 30 33 16 18 1014.0 1014.2 0.0
17/06:30pm 11.9 7.0 3.9 58 3.6 N 19 24 10 13 1014.3 1014.5 0.0
17/06:00pm 12.6 6.3 3.6 54 4.1 NNW 26 28 14 15 1014.4 1014.6 0.0
17/05:30pm 13.2 6.2 4.1 54 4.2 NNW 30 35 16 19 1014.4 1014.6 0.0
17/05:00pm 14.1 6.0 3.3 48 4.9 NNW 35 44 19 24 1014.3 1014.5 0.0
17/04:30pm 14.4 5.7 4.1 50 4.8 NNW 39 48 21 26 1014.4 1014.6 0.0
17/04:00pm 14.7 5.6 3.8 48 5.1 NNW 41 52 22 28 1014.4 1014.6 0.0
17/03:30pm 14.6 6.0 4.6 51 4.7 NNW 39 46 21 25 1014.8 1015.0 0.0
17/03:00pm 13.7 4.4 4.8 55 4.2 NW 43 54 23 29 1015.3 1015.5 0.0
17/02:30pm 13.7 5.1 4.6 54 4.3 NW 39 52 21 28 1015.6 1015.8 0.0
17/02:00pm 14.4 4.7 5.7 56 4.2 NW 46 59 25 32 1015.9 1016.0 0.0
17/01:30pm 14.3 5.1 5.4 55 4.3 NW 43 57 23 31 1016.4 1016.5 0.0
17/01:00pm 12.8 2.8 4.5 57 3.8 NW 46 57 25 31 1016.8 1017.0 0.0
17/12:30pm 12.6 2.7 4.8 59 3.6 NW 46 57 25 31 1017.3 1017.5 0.0
17/12:00pm 12.4 3.0 5.6 63 3.2 NW 44 56 24 30 1017.8 1018.0 0.0
17/11:30am 12.7 5.4 7.0 68 2.8 NW 35 46 19 25 1018.5 1018.7 0.0
17/11:00am 11.7 3.4 6.2 69 2.6 NNW 39 54 21 29 1018.6 1018.8 0.0
17/10:30am 11.5 2.3 5.4 66 2.9 NW 43 54 23 29 1018.7 1018.9 0.0
17/10:00am 10.7 2.9 6.6 76 2.0 NNW 37 46 20 25 1019.4 1019.6 0.0
17/09:30am 10.0 1.8 6.7 80 1.6 NNW 39 48 21 26 1019.4 1019.6 0.0
17/09:00am 8.7 1.2 6.3 85 1.1 NNW 35 41 19 22 1019.6 1019.8 1.2
17/08:30am 8.0 1.1 6.3 89 0.8 NNW 32 41 17 22 1019.6 1019.8 1.2
17/08:00am 6.8 -0.2 5.9 94 0.4 NNW 32 37 17 20 1019.9 1020.0 1.2
17/07:30am 5.2 -0.9 4.8 97 0.2 NNW 26 32 14 17 1019.7 1019.9 1.2
17/07:00am 4.3 -2.3 4.0 98 0.1 NNW 28 32 15 17 1019.6 1019.8 1.2
17/06:30am 4.6 -2.0 4.2 97 0.2 NNW 28 33 15 18 1019.6 1019.8 1.2
17/06:00am 4.5 -2.1 4.4 99 0.0 NW 28 32 15 17 1019.7 1019.9 1.2
17/05:30am 4.3 -2.7 4.2 99 0.0 NNW 30 35 16 19 1019.5 1019.7 1.2
17/05:00am 4.1 -2.1 4.1 100 0.0 NNW 26 33 14 18 1019.6 1019.8 1.2
17/04:30am 3.9 -2.4 3.9 100 0.0 NNW 26 30 14 16 1019.4 1019.6 1.2
17/04:00am 3.9 -1.6 3.9 100 0.0 NNW 22 26 12 14 1019.4 1019.6 1.2
17/03:30am 4.0 -1.5 4.0 100 0.0 NW 22 24 12 13 1019.5 1019.7 1.2
17/03:00am 4.2 -1.6 4.2 100 0.0 NW 24 28 13 15 1019.9 1020.0 1.2
17/02:30am 5.4 -1.0 5.4 100 0.0 NW 28 35 15 19 1020.0 1020.2 1.2
17/02:00am 4.8 -0.9 4.8 100 0.0 NW 24 32 13 17 1020.4 1020.6 1.2
17/01:30am 5.3 -0.7 5.3 100 0.0 NW 26 33 14 18 1020.6 1020.8 1.2
17/01:00am 5.3 -0.7 5.3 100 0.0 NW 26 32 14 17 1020.6 1020.8 1.2
17/12:30am 5.3 0.1 5.3 100 0.0 NW 22 32 12 17 1020.8 1021.0 1.2
17/12:00am 5.6 0.8 5.6 100 0.0 NW 20 26 11 14 1020.9 1021.1 1.2
 
Date/Time
EST
Temp
°C
App
Temp
°C
Dew
Point
°C
Rel
Hum
%
Delta-T
°C
Wind Press
QNH
hPa
Press
MSL
hPa
Rain since
9am
mm
Dir  Spd
km/h
Gust
km/h
Spd
kts
Gust
kts
16/11:30pm 6.0 1.3 6.0 100 0.0 NW 20 24 11 13 1021.1 1021.3 1.2
16/11:00pm 6.3 2.2 6.3 100 0.0 NW 17 20 9 11 1021.4 1021.6 1.2
16/10:30pm 7.1 3.6 7.1 100 0.0 NW 15 17 8 9 1021.7 1021.9 1.2
16/10:00pm 7.3 3.8 7.3 100 0.0 NW 15 17 8 9 1022.0 1022.2 1.2
16/09:30pm 7.5 4.8 7.2 98 0.1 NW 11 15 6 8 1022.1 1022.3 1.2
16/09:00pm 7.8 4.7 7.4 97 0.2 WNW 13 15 7 8 1022.0 1022.2 1.2
16/08:30pm 7.7 4.4 6.6 93 0.5 WNW 13 17 7 9 1021.9 1022.1 1.2
16/08:00pm 8.0 4.4 6.9 93 0.5 WNW 15 19 8 10 1021.9 1022.1 1.2
16/07:30pm 8.0 3.6 6.5 90 0.7 WNW 19 20 10 11 1021.8 1022.0 1.2

Other Formats:

Comma delimited format used in spreadsheet applications
http://www.bom.gov.au/fwo/IDV60801/IDV60801.95845.axf

JavaScript Object Notation format (JSON) in row-major order
http://www.bom.gov.au/fwo/IDV60801/IDV60801.95845.json